sensor_id;sensor_type;location;lat;lon;timestamp;temperature;humidity
28863;DHT22;15994;51.796;13.006;2022-07-23T00:00:07;18.90;99.90
28863;DHT22;15994;51.796;13.006;2022-07-23T00:02:34;19.10;99.90
28863;DHT22;15994;51.796;13.006;2022-07-23T00:05:01;19.10;99.90
28863;DHT22;15994;51.796;13.006;2022-07-23T00:07:27;18.90;99.90
28863;DHT22;15994;51.796;13.006;2022-07-23T00:09:54;18.90;99.90
28863;DHT22;15994;51.796;13.006;2022-07-23T00:12:21;18.70;99.90
28863;DHT22;15994;51.796;13.006;2022-07-23T00:14:48;18.60;99.90
28863;DHT22;15994;51.796;13.006;2022-07-23T00:17:14;18.60;99.90
28863;DHT22;15994;51.796;13.006;2022-07-23T00:19:41;18.60;99.90
28863;DHT22;15994;51.796;13.006;2022-07-23T00:22:07;18.60;99.90
28863;DHT22;15994;51.796;13.006;2022-07-23T00:24:34;18.60;99.90
28863;DHT22;15994;51.796;13.006;2022-07-23T00:27:00;18.50;99.90
28863;DHT22;15994;51.796;13.006;2022-07-23T00:29:27;18.50;99.90
28863;DHT22;15994;51.796;13.006;2022-07-23T00:31:53;18.70;99.90
28863;DHT22;15994;51.796;13.006;2022-07-23T00:34:20;18.70;99.90
28863;DHT22;15994;51.796;13.006;2022-07-23T00:36:46;18.70;99.90
28863;DHT22;15994;51.796;13.006;2022-07-23T00:39:13;19.00;99.90
28863;DHT22;15994;51.796;13.006;2022-07-23T00:41:39;18.90;99.90
28863;DHT22;15994;51.796;13.006;2022-07-23T00:44:24;19.00;99.90
28863;DHT22;15994;51.796;13.006;2022-07-23T00:46:53;18.70;99.90
28863;DHT22;15994;51.796;13.006;2022-07-23T00:49:24;18.80;99.90
28863;DHT22;15994;51.796;13.006;2022-07-23T00:51:51;18.40;99.90
28863;DHT22;15994;51.796;13.006;2022-07-23T00:54:19;18.30;99.90
28863;DHT22;15994;51.796;13.006;2022-07-23T00:56:46;18.20;99.90
28863;DHT22;15994;51.796;13.006;2022-07-23T00:59:13;18.20;99.90
28863;DHT22;15994;51.796;13.006;2022-07-23T01:01:40;18.10;99.90
28863;DHT22;15994;51.796;13.006;2022-07-23T01:04:07;17.90;99.90
28863;DHT22;15994;51.796;13.006;2022-07-23T01:06:35;17.80;99.90
28863;DHT22;15994;51.796;13.006;2022-07-23T01:09:04;17.80;99.90
28863;DHT22;15994;51.796;13.006;2022-07-23T01:11:36;17.90;99.90
28863;DHT22;15994;51.796;13.006;2022-07-23T01:14:17;17.90;99.90
28863;DHT22;15994;51.796;13.006;2022-07-23T01:16:44;17.90;99.90
28863;DHT22;15994;51.796;13.006;2022-07-23T01:19:12;18.20;99.90
28863;DHT22;15994;51.796;13.006;2022-07-23T01:21:43;18.30;99.90
28863;DHT22;15994;51.796;13.006;2022-07-23T01:24:11;18.30;99.90
28863;DHT22;15994;51.796;13.006;2022-07-23T01:26:40;18.20;99.90
28863;DHT22;15994;51.796;13.006;2022-07-23T01:29:07;18.30;99.90
28863;DHT22;15994;51.796;13.006;2022-07-23T01:31:33;18.40;99.90
28863;DHT22;15994;51.796;13.006;2022-07-23T01:34:00;18.60;99.90
28863;DHT22;15994;51.796;13.006;2022-07-23T01:36:27;18.50;99.90
28863;DHT22;15994;51.796;13.006;2022-07-23T01:38:53;18.40;99.90
28863;DHT22;15994;51.796;13.006;2022-07-23T01:41:20;18.50;99.90
28863;DHT22;15994;51.796;13.006;2022-07-23T01:43:47;18.50;99.90
28863;DHT22;15994;51.796;13.006;2022-07-23T01:46:13;18.60;99.90
28863;DHT22;15994;51.796;13.006;2022-07-23T01:48:40;18.60;99.90
28863;DHT22;15994;51.796;13.006;2022-07-23T01:51:07;18.30;99.90
28863;DHT22;15994;51.796;13.006;2022-07-23T01:53:33;18.10;99.90
28863;DHT22;15994;51.796;13.006;2022-07-23T01:56:01;18.10;99.90
28863;DHT22;15994;51.796;13.006;2022-07-23T01:58:28;17.90;99.90
28863;DHT22;15994;51.796;13.006;2022-07-23T02:00:55;17.80;99.90
28863;DHT22;15994;51.796;13.006;2022-07-23T02:03:22;17.90;99.90
28863;DHT22;15994;51.796;13.006;2022-07-23T02:05:49;17.80;99.90
28863;DHT22;15994;51.796;13.006;2022-07-23T02:08:16;17.70;99.90
28863;DHT22;15994;51.796;13.006;2022-07-23T02:10:42;17.60;99.90
28863;DHT22;15994;51.796;13.006;2022-07-23T02:13:09;17.60;99.90
28863;DHT22;15994;51.796;13.006;2022-07-23T02:15:36;17.70;99.90
28863;DHT22;15994;51.796;13.006;2022-07-23T02:18:02;17.80;99.90
28863;DHT22;15994;51.796;13.006;2022-07-23T02:20:29;17.90;99.90
28863;DHT22;15994;51.796;13.006;2022-07-23T02:22:55;17.80;99.90
28863;DHT22;15994;51.796;13.006;2022-07-23T02:25:22;17.90;99.90
28863;DHT22;15994;51.796;13.006;2022-07-23T02:27:48;17.80;99.90
28863;DHT22;15994;51.796;13.006;2022-07-23T02:30:15;17.70;99.90
28863;DHT22;15994;51.796;13.006;2022-07-23T02:32:42;17.70;99.90
28863;DHT22;15994;51.796;13.006;2022-07-23T02:35:08;17.70;99.90
28863;DHT22;15994;51.796;13.006;2022-07-23T02:37:35;17.60;99.90
28863;DHT22;15994;51.796;13.006;2022-07-23T02:40:01;17.70;99.90
28863;DHT22;15994;51.796;13.006;2022-07-23T02:42:28;18.00;99.90
28863;DHT22;15994;51.796;13.006;2022-07-23T02:44:55;17.90;99.90
28863;DHT22;15994;51.796;13.006;2022-07-23T02:47:21;17.90;99.90
28863;DHT22;15994;51.796;13.006;2022-07-23T02:49:48;17.90;99.90
28863;DHT22;15994;51.796;13.006;2022-07-23T02:52:14;17.80;99.90
28863;DHT22;15994;51.796;13.006;2022-07-23T02:54:41;17.70;99.90
28863;DHT22;15994;51.796;13.006;2022-07-23T02:57:07;17.70;99.90
28863;DHT22;15994;51.796;13.006;2022-07-23T02:59:34;17.70;99.90
28863;DHT22;15994;51.796;13.006;2022-07-23T03:02:00;17.80;99.90
28863;DHT22;15994;51.796;13.006;2022-07-23T03:04:27;17.80;99.90
28863;DHT22;15994;51.796;13.006;2022-07-23T03:06:53;17.70;99.90
28863;DHT22;15994;51.796;13.006;2022-07-23T03:09:20;17.60;99.90
28863;DHT22;15994;51.796;13.006;2022-07-23T03:11:46;17.60;99.90
28863;DHT22;15994;51.796;13.006;2022-07-23T03:14:13;17.70;99.90
28863;DHT22;15994;51.796;13.006;2022-07-23T03:16:41;17.90;99.90
28863;DHT22;15994;51.796;13.006;2022-07-23T03:19:08;17.70;99.90
28863;DHT22;15994;51.796;13.006;2022-07-23T03:21:34;17.50;99.90
28863;DHT22;15994;51.796;13.006;2022-07-23T03:24:06;17.40;99.90
28863;DHT22;15994;51.796;13.006;2022-07-23T03:26:33;17.20;99.90
28863;DHT22;15994;51.796;13.006;2022-07-23T03:28:59;17.30;99.90
28863;DHT22;15994;51.796;13.006;2022-07-23T03:31:26;17.20;99.90
28863;DHT22;15994;51.796;13.006;2022-07-23T03:33:53;17.20;99.90
28863;DHT22;15994;51.796;13.006;2022-07-23T03:36:19;17.20;99.90
28863;DHT22;15994;51.796;13.006;2022-07-23T03:38:46;17.50;99.90
28863;DHT22;15994;51.796;13.006;2022-07-23T03:41:12;17.70;99.90
28863;DHT22;15994;51.796;13.006;2022-07-23T03:43:39;17.70;99.90
28863;DHT22;15994;51.796;13.006;2022-07-23T03:46:05;17.60;99.90
28863;DHT22;15994;51.796;13.006;2022-07-23T03:48:32;17.50;99.90
28863;DHT22;15994;51.796;13.006;2022-07-23T03:50:58;17.70;99.90
28863;DHT22;15994;51.796;13.006;2022-07-23T03:53:25;17.50;99.90
28863;DHT22;15994;51.796;13.006;2022-07-23T03:55:51;17.40;99.90
28863;DHT22;15994;51.796;13.006;2022-07-23T03:58:18;17.30;99.90
28863;DHT22;15994;51.796;13.006;2022-07-23T04:00:44;17.40;99.90
28863;DHT22;15994;51.796;13.006;2022-07-23T04:03:11;17.20;99.90
28863;DHT22;15994;51.796;13.006;2022-07-23T04:05:37;17.20;99.90
28863;DHT22;15994;51.796;13.006;2022-07-23T04:08:04;17.20;99.90
28863;DHT22;15994;51.796;13.006;2022-07-23T04:10:31;17.20;99.90
28863;DHT22;15994;51.796;13.006;2022-07-23T04:12:57;17.10;99.90
28863;DHT22;15994;51.796;13.006;2022-07-23T04:15:24;17.20;99.90
28863;DHT22;15994;51.796;13.006;2022-07-23T04:17:50;17.20;99.90
28863;DHT22;15994;51.796;13.006;2022-07-23T04:20:17;17.60;99.90
28863;DHT22;15994;51.796;13.006;2022-07-23T04:22:44;17.40;99.90
28863;DHT22;15994;51.796;13.006;2022-07-23T04:25:10;17.30;99.90
28863;DHT22;15994;51.796;13.006;2022-07-23T04:27:38;17.70;99.90
28863;DHT22;15994;51.796;13.006;2022-07-23T04:30:05;17.80;99.90
28863;DHT22;15994;51.796;13.006;2022-07-23T04:32:32;17.80;99.90
28863;DHT22;15994;51.796;13.006;2022-07-23T04:34:59;17.70;99.90
28863;DHT22;15994;51.796;13.006;2022-07-23T04:37:25;17.80;99.90
28863;DHT22;15994;51.796;13.006;2022-07-23T04:39:52;17.60;99.90
28863;DHT22;15994;51.796;13.006;2022-07-23T04:42:18;17.50;99.90
28863;DHT22;15994;51.796;13.006;2022-07-23T04:44:45;17.50;99.90
28863;DHT22;15994;51.796;13.006;2022-07-23T04:47:11;17.60;99.90
28863;DHT22;15994;51.796;13.006;2022-07-23T04:49:38;17.60;99.90
28863;DHT22;15994;51.796;13.006;2022-07-23T04:52:04;17.50;99.90
28863;DHT22;15994;51.796;13.006;2022-07-23T04:54:31;18.10;99.90
28863;DHT22;15994;51.796;13.006;2022-07-23T04:56:57;17.80;99.90
28863;DHT22;15994;51.796;13.006;2022-07-23T04:59:24;17.80;99.90
28863;DHT22;15994;51.796;13.006;2022-07-23T05:01:51;17.70;99.90
28863;DHT22;15994;51.796;13.006;2022-07-23T05:04:17;17.70;99.90
28863;DHT22;15994;51.796;13.006;2022-07-23T05:06:44;17.50;99.90
28863;DHT22;15994;51.796;13.006;2022-07-23T05:09:10;17.50;99.90
28863;DHT22;15994;51.796;13.006;2022-07-23T05:11:37;17.60;99.90
28863;DHT22;15994;51.796;13.006;2022-07-23T05:14:03;17.60;99.90
28863;DHT22;15994;51.796;13.006;2022-07-23T05:16:30;17.60;99.90
28863;DHT22;15994;51.796;13.006;2022-07-23T05:18:57;17.60;99.90
28863;DHT22;15994;51.796;13.006;2022-07-23T05:21:23;17.80;99.90
28863;DHT22;15994;51.796;13.006;2022-07-23T05:23:50;18.00;99.90
28863;DHT22;15994;51.796;13.006;2022-07-23T05:26:16;18.00;99.90
28863;DHT22;15994;51.796;13.006;2022-07-23T05:28:43;17.60;99.90
28863;DHT22;15994;51.796;13.006;2022-07-23T05:31:09;17.60;99.90
28863;DHT22;15994;51.796;13.006;2022-07-23T05:33:36;17.40;99.90
28863;DHT22;15994;51.796;13.006;2022-07-23T05:36:03;17.20;99.90
28863;DHT22;15994;51.796;13.006;2022-07-23T05:38:31;17.40;99.90
28863;DHT22;15994;51.796;13.006;2022-07-23T05:40:58;17.10;99.90
28863;DHT22;15994;51.796;13.006;2022-07-23T05:43:25;17.00;99.90
28863;DHT22;15994;51.796;13.006;2022-07-23T05:45:52;16.60;99.90
28863;DHT22;15994;51.796;13.006;2022-07-23T05:48:19;17.70;99.90
28863;DHT22;15994;51.796;13.006;2022-07-23T05:50:47;19.20;99.90
28863;DHT22;15994;51.796;13.006;2022-07-23T05:53:13;19.60;99.90
28863;DHT22;15994;51.796;13.006;2022-07-23T05:55:40;18.80;99.90
28863;DHT22;15994;51.796;13.006;2022-07-23T05:58:06;18.50;99.90
28863;DHT22;15994;51.796;13.006;2022-07-23T06:00:34;17.80;99.90
28863;DHT22;15994;51.796;13.006;2022-07-23T06:03:00;17.60;99.90
28863;DHT22;15994;51.796;13.006;2022-07-23T06:05:27;18.30;99.90
28863;DHT22;15994;51.796;13.006;2022-07-23T06:07:54;19.00;99.90
28863;DHT22;15994;51.796;13.006;2022-07-23T06:10:20;18.00;99.90
28863;DHT22;15994;51.796;13.006;2022-07-23T06:12:47;18.60;99.90
28863;DHT22;15994;51.796;13.006;2022-07-23T06:15:14;18.60;99.90
28863;DHT22;15994;51.796;13.006;2022-07-23T06:17:40;19.50;99.90
28863;DHT22;15994;51.796;13.006;2022-07-23T06:20:08;19.90;99.90
28863;DHT22;15994;51.796;13.006;2022-07-23T06:22:35;20.20;99.90
28863;DHT22;15994;51.796;13.006;2022-07-23T06:25:02;19.30;99.90
28863;DHT22;15994;51.796;13.006;2022-07-23T06:27:29;19.80;99.90
28863;DHT22;15994;51.796;13.006;2022-07-23T06:29:55;19.30;99.90
28863;DHT22;15994;51.796;13.006;2022-07-23T06:32:22;19.20;99.90
28863;DHT22;15994;51.796;13.006;2022-07-23T06:34:49;18.80;99.90
28863;DHT22;15994;51.796;13.006;2022-07-23T06:37:15;18.10;99.90
28863;DHT22;15994;51.796;13.006;2022-07-23T06:39:42;17.20;99.90
28863;DHT22;15994;51.796;13.006;2022-07-23T06:42:09;17.00;99.90
28863;DHT22;15994;51.796;13.006;2022-07-23T06:44:37;17.00;99.90
28863;DHT22;15994;51.796;13.006;2022-07-23T06:47:03;16.80;99.90
28863;DHT22;15994;51.796;13.006;2022-07-23T06:49:30;17.00;99.90
28863;DHT22;15994;51.796;13.006;2022-07-23T06:51:57;17.40;99.90
28863;DHT22;15994;51.796;13.006;2022-07-23T06:54:23;18.70;99.90
28863;DHT22;15994;51.796;13.006;2022-07-23T06:56:50;18.80;99.90
28863;DHT22;15994;51.796;13.006;2022-07-23T06:59:16;19.20;99.90
28863;DHT22;15994;51.796;13.006;2022-07-23T07:01:43;17.90;99.90
28863;DHT22;15994;51.796;13.006;2022-07-23T07:04:09;17.30;99.90
28863;DHT22;15994;51.796;13.006;2022-07-23T07:06:36;16.90;99.90
28863;DHT22;15994;51.796;13.006;2022-07-23T07:09:03;16.70;99.90
28863;DHT22;15994;51.796;13.006;2022-07-23T07:11:30;16.70;99.90
28863;DHT22;15994;51.796;13.006;2022-07-23T07:13:57;16.70;99.90
28863;DHT22;15994;51.796;13.006;2022-07-23T07:16:24;16.70;99.90
28863;DHT22;15994;51.796;13.006;2022-07-23T07:18:50;16.80;99.90
28863;DHT22;15994;51.796;13.006;2022-07-23T07:21:17;16.70;99.90
28863;DHT22;15994;51.796;13.006;2022-07-23T07:23:43;16.60;99.90
28863;DHT22;15994;51.796;13.006;2022-07-23T07:26:10;16.70;99.90
28863;DHT22;15994;51.796;13.006;2022-07-23T07:28:36;16.80;99.90
28863;DHT22;15994;51.796;13.006;2022-07-23T07:31:03;16.80;99.90
28863;DHT22;15994;51.796;13.006;2022-07-23T07:33:30;16.80;99.90
28863;DHT22;15994;51.796;13.006;2022-07-23T07:35:56;16.70;99.90
28863;DHT22;15994;51.796;13.006;2022-07-23T07:38:23;16.80;99.90
28863;DHT22;15994;51.796;13.006;2022-07-23T07:40:50;16.90;99.90
28863;DHT22;15994;51.796;13.006;2022-07-23T07:43:16;17.10;99.90
28863;DHT22;15994;51.796;13.006;2022-07-23T07:45:43;17.00;99.90
28863;DHT22;15994;51.796;13.006;2022-07-23T07:48:09;17.30;99.90
28863;DHT22;15994;51.796;13.006;2022-07-23T07:50:36;17.20;99.90
28863;DHT22;15994;51.796;13.006;2022-07-23T07:53:03;17.40;99.90
28863;DHT22;15994;51.796;13.006;2022-07-23T07:55:29;17.30;99.90
28863;DHT22;15994;51.796;13.006;2022-07-23T07:57:56;17.30;99.90
28863;DHT22;15994;51.796;13.006;2022-07-23T08:00:23;17.40;99.90
28863;DHT22;15994;51.796;13.006;2022-07-23T08:02:51;17.30;99.90
28863;DHT22;15994;51.796;13.006;2022-07-23T08:05:23;17.50;99.90
28863;DHT22;15994;51.796;13.006;2022-07-23T08:07:50;17.50;99.90
28863;DHT22;15994;51.796;13.006;2022-07-23T08:10:17;17.80;99.90
28863;DHT22;15994;51.796;13.006;2022-07-23T08:12:50;17.80;99.90
28863;DHT22;15994;51.796;13.006;2022-07-23T08:15:19;18.00;99.90
28863;DHT22;15994;51.796;13.006;2022-07-23T08:17:47;18.10;99.90
28863;DHT22;15994;51.796;13.006;2022-07-23T08:20:15;18.10;99.90
28863;DHT22;15994;51.796;13.006;2022-07-23T08:22:56;18.00;99.90
28863;DHT22;15994;51.796;13.006;2022-07-23T08:25:29;18.30;99.90
28863;DHT22;15994;51.796;13.006;2022-07-23T08:27:57;18.30;99.90
28863;DHT22;15994;51.796;13.006;2022-07-23T08:30:24;18.20;99.90
28863;DHT22;15994;51.796;13.006;2022-07-23T08:32:57;18.50;99.90
28863;DHT22;15994;51.796;13.006;2022-07-23T08:37:53;19.10;99.90
28863;DHT22;15994;51.796;13.006;2022-07-23T08:40:20;19.50;99.90
28863;DHT22;15994;51.796;13.006;2022-07-23T08:42:48;19.50;99.90
28863;DHT22;15994;51.796;13.006;2022-07-23T08:45:20;19.30;99.90
28863;DHT22;15994;51.796;13.006;2022-07-23T08:47:51;19.00;99.90
28863;DHT22;15994;51.796;13.006;2022-07-23T08:50:18;19.20;99.90
28863;DHT22;15994;51.796;13.006;2022-07-23T08:52:45;19.20;99.90
28863;DHT22;15994;51.796;13.006;2022-07-23T08:55:12;19.50;99.90
28863;DHT22;15994;51.796;13.006;2022-07-23T08:57:39;19.60;99.90
28863;DHT22;15994;51.796;13.006;2022-07-23T09:00:06;19.40;99.90
28863;DHT22;15994;51.796;13.006;2022-07-23T09:02:39;19.50;99.90
28863;DHT22;15994;51.796;13.006;2022-07-23T09:05:08;19.60;99.90
28863;DHT22;15994;51.796;13.006;2022-07-23T09:07:36;19.50;99.90
28863;DHT22;15994;51.796;13.006;2022-07-23T09:10:08;19.70;99.90
28863;DHT22;15994;51.796;13.006;2022-07-23T09:12:35;19.80;99.90
28863;DHT22;15994;51.796;13.006;2022-07-23T09:15:08;19.80;99.90
28863;DHT22;15994;51.796;13.006;2022-07-23T09:17:52;19.90;99.90
28863;DHT22;15994;51.796;13.006;2022-07-23T09:20:20;19.80;99.90
28863;DHT22;15994;51.796;13.006;2022-07-23T09:22:48;19.70;99.90
28863;DHT22;15994;51.796;13.006;2022-07-23T09:25:17;19.90;99.90
28863;DHT22;15994;51.796;13.006;2022-07-23T09:27:56;19.60;99.90
28863;DHT22;15994;51.796;13.006;2022-07-23T09:30:24;19.70;99.90
28863;DHT22;15994;51.796;13.006;2022-07-23T09:33:06;19.80;99.90
28863;DHT22;15994;51.796;13.006;2022-07-23T09:35:44;19.80;99.90
28863;DHT22;15994;51.796;13.006;2022-07-23T09:38:11;19.70;99.90
28863;DHT22;15994;51.796;13.006;2022-07-23T09:40:38;19.80;99.90
28863;DHT22;15994;51.796;13.006;2022-07-23T09:43:04;19.60;99.90
28863;DHT22;15994;51.796;13.006;2022-07-23T09:45:31;19.50;99.90
28863;DHT22;15994;51.796;13.006;2022-07-23T09:48:16;19.50;99.90
28863;DHT22;15994;51.796;13.006;2022-07-23T09:50:44;19.50;99.90
28863;DHT22;15994;51.796;13.006;2022-07-23T09:53:26;19.80;99.90
28863;DHT22;15994;51.796;13.006;2022-07-23T09:55:54;19.80;99.90
28863;DHT22;15994;51.796;13.006;2022-07-23T09:58:25;19.60;99.90
28863;DHT22;15994;51.796;13.006;2022-07-23T10:00:53;19.80;99.90
28863;DHT22;15994;51.796;13.006;2022-07-23T10:03:20;19.70;99.90
28863;DHT22;15994;51.796;13.006;2022-07-23T10:05:48;19.90;99.90
28863;DHT22;15994;51.796;13.006;2022-07-23T10:08:18;19.90;99.90
28863;DHT22;15994;51.796;13.006;2022-07-23T10:10:48;20.10;99.90
28863;DHT22;15994;51.796;13.006;2022-07-23T10:13:15;20.10;99.90
28863;DHT22;15994;51.796;13.006;2022-07-23T10:15:59;20.20;99.90
28863;DHT22;15994;51.796;13.006;2022-07-23T10:18:26;20.20;99.90
28863;DHT22;15994;51.796;13.006;2022-07-23T10:20:52;20.10;99.90
28863;DHT22;15994;51.796;13.006;2022-07-23T10:23:42;20.30;99.90
28863;DHT22;15994;51.796;13.006;2022-07-23T10:29:21;20.50;99.90
28863;DHT22;15994;51.796;13.006;2022-07-23T10:32:04;20.50;99.90
28863;DHT22;15994;51.796;13.006;2022-07-23T10:37:36;20.50;99.90
28863;DHT22;15994;51.796;13.006;2022-07-23T10:40:21;20.40;99.90
28863;DHT22;15994;51.796;13.006;2022-07-23T10:42:51;20.50;99.90
28863;DHT22;15994;51.796;13.006;2022-07-23T10:45:26;20.80;99.90
28863;DHT22;15994;51.796;13.006;2022-07-23T10:47:54;20.80;99.90
28863;DHT22;15994;51.796;13.006;2022-07-23T10:50:29;21.10;99.90
28863;DHT22;15994;51.796;13.006;2022-07-23T10:53:09;21.50;99.90
28863;DHT22;15994;51.796;13.006;2022-07-23T10:58:04;21.80;99.90
28863;DHT22;15994;51.796;13.006;2022-07-23T11:00:33;21.60;99.90
28863;DHT22;15994;51.796;13.006;2022-07-23T11:03:06;21.80;99.90
28863;DHT22;15994;51.796;13.006;2022-07-23T11:05:51;21.70;99.90
28863;DHT22;15994;51.796;13.006;2022-07-23T11:08:20;21.30;99.90
28863;DHT22;15994;51.796;13.006;2022-07-23T11:11:16;21.50;99.90
28863;DHT22;15994;51.796;13.006;2022-07-23T11:13:46;21.80;99.90
28863;DHT22;15994;51.796;13.006;2022-07-23T11:16:19;21.90;99.90
28863;DHT22;15994;51.796;13.006;2022-07-23T11:23:58;22.10;99.90
28863;DHT22;15994;51.796;13.006;2022-07-23T11:26:49;22.30;99.90
28863;DHT22;15994;51.796;13.006;2022-07-23T11:32:03;22.30;99.90
28863;DHT22;15994;51.796;13.006;2022-07-23T11:34:40;22.30;99.90
28863;DHT22;15994;51.796;13.006;2022-07-23T11:37:10;22.30;99.90
28863;DHT22;15994;51.796;13.006;2022-07-23T11:39:37;22.50;99.90
28863;DHT22;15994;51.796;13.006;2022-07-23T11:42:06;22.60;99.90
28863;DHT22;15994;51.796;13.006;2022-07-23T11:44:37;22.50;99.90
28863;DHT22;15994;51.796;13.006;2022-07-23T11:47:06;22.20;99.90
28863;DHT22;15994;51.796;13.006;2022-07-23T11:49:34;22.20;99.90
28863;DHT22;15994;51.796;13.006;2022-07-23T11:52:05;22.10;99.90
28863;DHT22;15994;51.796;13.006;2022-07-23T11:54:32;22.00;99.90
28863;DHT22;15994;51.796;13.006;2022-07-23T11:57:00;22.20;99.90
28863;DHT22;15994;51.796;13.006;2022-07-23T11:59:29;22.50;99.90
28863;DHT22;15994;51.796;13.006;2022-07-23T12:02:01;22.60;99.90
28863;DHT22;15994;51.796;13.006;2022-07-23T12:07:34;22.50;99.90
28863;DHT22;15994;51.796;13.006;2022-07-23T12:15:13;23.20;99.90
28863;DHT22;15994;51.796;13.006;2022-07-23T12:17:43;23.20;99.90
28863;DHT22;15994;51.796;13.006;2022-07-23T12:20:14;23.40;99.90
28863;DHT22;15994;51.796;13.006;2022-07-23T12:22:46;23.40;99.90
28863;DHT22;15994;51.796;13.006;2022-07-23T12:25:21;23.50;99.90
28863;DHT22;15994;51.796;13.006;2022-07-23T12:28:03;23.00;99.90
28863;DHT22;15994;51.796;13.006;2022-07-23T12:30:50;22.60;99.90
28863;DHT22;15994;51.796;13.006;2022-07-23T12:33:25;22.80;99.90
28863;DHT22;15994;51.796;13.006;2022-07-23T12:35:54;22.80;99.90
28863;DHT22;15994;51.796;13.006;2022-07-23T12:38:23;23.00;99.90
28863;DHT22;15994;51.796;13.006;2022-07-23T12:40:52;22.80;99.90
28863;DHT22;15994;51.796;13.006;2022-07-23T12:43:27;22.60;99.90
28863;DHT22;15994;51.796;13.006;2022-07-23T12:45:55;22.90;99.90
28863;DHT22;15994;51.796;13.006;2022-07-23T12:48:26;22.80;99.90
28863;DHT22;15994;51.796;13.006;2022-07-23T12:53:21;22.60;99.90
28863;DHT22;15994;51.796;13.006;2022-07-23T12:55:49;22.90;99.90
28863;DHT22;15994;51.796;13.006;2022-07-23T12:58:20;23.20;99.90
28863;DHT22;15994;51.796;13.006;2022-07-23T13:03:40;23.30;99.90
28863;DHT22;15994;51.796;13.006;2022-07-23T13:06:08;23.20;99.90
28863;DHT22;15994;51.796;13.006;2022-07-23T13:08:37;23.10;99.90
28863;DHT22;15994;51.796;13.006;2022-07-23T13:11:05;23.20;99.90
28863;DHT22;15994;51.796;13.006;2022-07-23T13:13:34;23.20;99.90
28863;DHT22;15994;51.796;13.006;2022-07-23T13:16:02;23.10;99.90
28863;DHT22;15994;51.796;13.006;2022-07-23T13:18:29;22.90;99.90
28863;DHT22;15994;51.796;13.006;2022-07-23T13:20:57;23.00;99.90
28863;DHT22;15994;51.796;13.006;2022-07-23T13:23:24;23.20;99.90
28863;DHT22;15994;51.796;13.006;2022-07-23T13:25:50;23.20;99.90
28863;DHT22;15994;51.796;13.006;2022-07-23T13:28:18;23.30;99.90
28863;DHT22;15994;51.796;13.006;2022-07-23T13:30:46;23.30;99.90
28863;DHT22;15994;51.796;13.006;2022-07-23T13:33:15;23.30;99.90
28863;DHT22;15994;51.796;13.006;2022-07-23T13:35:42;23.40;99.90
28863;DHT22;15994;51.796;13.006;2022-07-23T13:38:09;23.60;99.90
28863;DHT22;15994;51.796;13.006;2022-07-23T13:40:38;23.60;99.90
28863;DHT22;15994;51.796;13.006;2022-07-23T13:43:06;23.90;99.90
28863;DHT22;15994;51.796;13.006;2022-07-23T13:45:33;24.10;99.90
28863;DHT22;15994;51.796;13.006;2022-07-23T13:48:01;24.30;99.90
28863;DHT22;15994;51.796;13.006;2022-07-23T13:50:28;24.40;99.90
28863;DHT22;15994;51.796;13.006;2022-07-23T13:52:55;24.30;99.90
28863;DHT22;15994;51.796;13.006;2022-07-23T13:55:21;24.30;99.90
28863;DHT22;15994;51.796;13.006;2022-07-23T13:57:48;24.40;99.90
28863;DHT22;15994;51.796;13.006;2022-07-23T14:00:16;24.60;99.90
28863;DHT22;15994;51.796;13.006;2022-07-23T14:02:42;24.40;99.90
28863;DHT22;15994;51.796;13.006;2022-07-23T14:05:10;24.30;99.90
28863;DHT22;15994;51.796;13.006;2022-07-23T14:07:38;24.40;99.90
28863;DHT22;15994;51.796;13.006;2022-07-23T14:10:06;24.40;99.90
28863;DHT22;15994;51.796;13.006;2022-07-23T14:12:33;24.40;99.90
28863;DHT22;15994;51.796;13.006;2022-07-23T14:15:00;24.40;99.90
28863;DHT22;15994;51.796;13.006;2022-07-23T14:17:27;24.50;99.90
28863;DHT22;15994;51.796;13.006;2022-07-23T14:19:53;24.60;99.90
28863;DHT22;15994;51.796;13.006;2022-07-23T14:22:20;24.80;99.90
28863;DHT22;15994;51.796;13.006;2022-07-23T14:24:46;24.70;99.90
28863;DHT22;15994;51.796;13.006;2022-07-23T14:27:13;24.70;99.90
28863;DHT22;15994;51.796;13.006;2022-07-23T14:29:39;24.80;99.90
28863;DHT22;15994;51.796;13.006;2022-07-23T14:32:06;24.90;99.90
28863;DHT22;15994;51.796;13.006;2022-07-23T14:34:34;25.20;99.90
28863;DHT22;15994;51.796;13.006;2022-07-23T14:37:00;25.30;99.90
28863;DHT22;15994;51.796;13.006;2022-07-23T14:39:27;25.30;99.90
28863;DHT22;15994;51.796;13.006;2022-07-23T14:41:54;25.30;99.90
28863;DHT22;15994;51.796;13.006;2022-07-23T14:44:20;25.20;99.90
28863;DHT22;15994;51.796;13.006;2022-07-23T14:46:47;25.20;99.90
28863;DHT22;15994;51.796;13.006;2022-07-23T14:49:13;25.10;99.90
28863;DHT22;15994;51.796;13.006;2022-07-23T14:51:40;25.10;99.90
28863;DHT22;15994;51.796;13.006;2022-07-23T14:54:08;25.10;99.90
28863;DHT22;15994;51.796;13.006;2022-07-23T14:56:35;25.00;99.90
28863;DHT22;15994;51.796;13.006;2022-07-23T14:59:03;25.10;99.90
28863;DHT22;15994;51.796;13.006;2022-07-23T15:01:29;25.10;99.90
28863;DHT22;15994;51.796;13.006;2022-07-23T15:03:56;25.20;99.90
28863;DHT22;15994;51.796;13.006;2022-07-23T15:06:22;25.00;99.90
28863;DHT22;15994;51.796;13.006;2022-07-23T15:08:50;24.80;99.90
28863;DHT22;15994;51.796;13.006;2022-07-23T15:11:17;24.90;99.90
28863;DHT22;15994;51.796;13.006;2022-07-23T15:13:43;25.00;99.90
28863;DHT22;15994;51.796;13.006;2022-07-23T15:16:10;25.20;99.90
28863;DHT22;15994;51.796;13.006;2022-07-23T15:18:43;25.00;99.90
28863;DHT22;15994;51.796;13.006;2022-07-23T15:21:10;25.20;99.90
28863;DHT22;15994;51.796;13.006;2022-07-23T15:23:37;25.20;99.90
28863;DHT22;15994;51.796;13.006;2022-07-23T15:26:18;25.00;99.90
28863;DHT22;15994;51.796;13.006;2022-07-23T15:28:45;25.10;99.90
28863;DHT22;15994;51.796;13.006;2022-07-23T15:31:11;25.40;99.90
28863;DHT22;15994;51.796;13.006;2022-07-23T15:33:38;25.80;99.90
28863;DHT22;15994;51.796;13.006;2022-07-23T15:36:05;25.80;98.80
28863;DHT22;15994;51.796;13.006;2022-07-23T15:38:32;25.90;97.80
28863;DHT22;15994;51.796;13.006;2022-07-23T15:40:59;25.90;98.20
28863;DHT22;15994;51.796;13.006;2022-07-23T15:43:25;25.90;98.60
28863;DHT22;15994;51.796;13.006;2022-07-23T15:45:53;26.20;99.40
28863;DHT22;15994;51.796;13.006;2022-07-23T15:48:20;26.40;98.40
28863;DHT22;15994;51.796;13.006;2022-07-23T15:50:47;26.50;98.40
28863;DHT22;15994;51.796;13.006;2022-07-23T15:53:14;26.50;98.20